sensor_id;sensor_type;location;lat;lon;timestamp;P1;durP1;ratioP1;P2;durP2;ratioP2
75340;SDS011;64931;47.562;18.920;2023-12-20T00:01:22;42.30;;;18.10;;
75340;SDS011;64931;47.562;18.920;2023-12-20T00:03:48;43.70;;;18.40;;
75340;SDS011;64931;47.562;18.920;2023-12-20T00:06:13;50.30;;;21.10;;
75340;SDS011;64931;47.562;18.920;2023-12-20T00:08:38;50.60;;;21.80;;
75340;SDS011;64931;47.562;18.920;2023-12-20T00:11:04;51.30;;;22.50;;
75340;SDS011;64931;47.562;18.920;2023-12-20T00:13:29;46.50;;;20.00;;
75340;SDS011;64931;47.562;18.920;2023-12-20T00:15:54;42.90;;;20.20;;
75340;SDS011;64931;47.562;18.920;2023-12-20T00:18:20;49.50;;;21.50;;
75340;SDS011;64931;47.562;18.920;2023-12-20T00:20:45;50.40;;;22.20;;
75340;SDS011;64931;47.562;18.920;2023-12-20T00:23:13;52.50;;;22.80;;
75340;SDS011;64931;47.562;18.920;2023-12-20T00:25:38;49.20;;;21.30;;
75340;SDS011;64931;47.562;18.920;2023-12-20T00:28:03;43.60;;;18.80;;
75340;SDS011;64931;47.562;18.920;2023-12-20T00:30:29;45.60;;;19.60;;
75340;SDS011;64931;47.562;18.920;2023-12-20T00:32:55;51.40;;;21.40;;
75340;SDS011;64931;47.562;18.920;2023-12-20T00:35:20;49.50;;;21.60;;
75340;SDS011;64931;47.562;18.920;2023-12-20T00:37:46;44.40;;;19.80;;
75340;SDS011;64931;47.562;18.920;2023-12-20T00:40:11;48.50;;;21.60;;
75340;SDS011;64931;47.562;18.920;2023-12-20T00:42:36;48.00;;;21.30;;
75340;SDS011;64931;47.562;18.920;2023-12-20T00:45:02;46.30;;;19.20;;
75340;SDS011;64931;47.562;18.920;2023-12-20T00:47:29;47.80;;;21.20;;
75340;SDS011;64931;47.562;18.920;2023-12-20T00:49:55;43.20;;;19.00;;
75340;SDS011;64931;47.562;18.920;2023-12-20T00:52:20;45.00;;;20.70;;
75340;SDS011;64931;47.562;18.920;2023-12-20T00:54:47;44.70;;;19.20;;
75340;SDS011;64931;47.562;18.920;2023-12-20T00:57:13;39.10;;;17.90;;
75340;SDS011;64931;47.562;18.920;2023-12-20T00:59:38;37.90;;;17.20;;
75340;SDS011;64931;47.562;18.920;2023-12-20T01:02:04;39.60;;;18.60;;
75340;SDS011;64931;47.562;18.920;2023-12-20T01:04:29;37.20;;;17.30;;
75340;SDS011;64931;47.562;18.920;2023-12-20T01:06:54;39.40;;;18.60;;
75340;SDS011;64931;47.562;18.920;2023-12-20T01:09:19;46.50;;;19.40;;
75340;SDS011;64931;47.562;18.920;2023-12-20T01:11:48;40.80;;;18.10;;
75340;SDS011;64931;47.562;18.920;2023-12-20T01:14:14;35.90;;;16.40;;
75340;SDS011;64931;47.562;18.920;2023-12-20T01:16:39;36.10;;;16.40;;
75340;SDS011;64931;47.562;18.920;2023-12-20T01:19:04;37.20;;;16.70;;
75340;SDS011;64931;47.562;18.920;2023-12-20T01:21:30;37.30;;;15.20;;
75340;SDS011;64931;47.562;18.920;2023-12-20T01:23:55;47.20;;;20.30;;
75340;SDS011;64931;47.562;18.920;2023-12-20T01:26:20;39.30;;;18.60;;
75340;SDS011;64931;47.562;18.920;2023-12-20T01:28:46;45.80;;;19.80;;
75340;SDS011;64931;47.562;18.920;2023-12-20T01:31:11;47.90;;;19.90;;
75340;SDS011;64931;47.562;18.920;2023-12-20T01:33:36;43.30;;;18.80;;
75340;SDS011;64931;47.562;18.920;2023-12-20T01:36:02;41.80;;;17.90;;
75340;SDS011;64931;47.562;18.920;2023-12-20T01:38:28;40.30;;;18.80;;
75340;SDS011;64931;47.562;18.920;2023-12-20T01:40:54;46.30;;;19.50;;
75340;SDS011;64931;47.562;18.920;2023-12-20T01:43:19;41.20;;;18.40;;
75340;SDS011;64931;47.562;18.920;2023-12-20T01:45:44;43.10;;;18.40;;
75340;SDS011;64931;47.562;18.920;2023-12-20T01:48:10;48.50;;;20.10;;
75340;SDS011;64931;47.562;18.920;2023-12-20T01:50:36;39.00;;;18.00;;
75340;SDS011;64931;47.562;18.920;2023-12-20T01:53:02;42.60;;;18.60;;
75340;SDS011;64931;47.562;18.920;2023-12-20T01:55:32;42.20;;;17.80;;
75340;SDS011;64931;47.562;18.920;2023-12-20T01:57:59;38.80;;;17.10;;
75340;SDS011;64931;47.562;18.920;2023-12-20T02:00:24;40.50;;;16.80;;
75340;SDS011;64931;47.562;18.920;2023-12-20T02:02:52;38.70;;;16.80;;
75340;SDS011;64931;47.562;18.920;2023-12-20T02:05:18;53.90;;;22.90;;
75340;SDS011;64931;47.562;18.920;2023-12-20T02:07:44;53.90;;;22.00;;
75340;SDS011;64931;47.562;18.920;2023-12-20T02:10:09;45.40;;;20.00;;
75340;SDS011;64931;47.562;18.920;2023-12-20T02:12:35;45.00;;;19.40;;
75340;SDS011;64931;47.562;18.920;2023-12-20T02:15:00;42.00;;;19.00;;
75340;SDS011;64931;47.562;18.920;2023-12-20T02:17:26;50.00;;;19.80;;
75340;SDS011;64931;47.562;18.920;2023-12-20T02:19:52;43.60;;;19.50;;
75340;SDS011;64931;47.562;18.920;2023-12-20T02:22:17;59.80;;;21.80;;
75340;SDS011;64931;47.562;18.920;2023-12-20T02:24:43;56.80;;;21.30;;
75340;SDS011;64931;47.562;18.920;2023-12-20T02:27:08;56.40;;;21.10;;
75340;SDS011;64931;47.562;18.920;2023-12-20T02:29:34;45.20;;;18.70;;
75340;SDS011;64931;47.562;18.920;2023-12-20T02:32:00;40.70;;;19.60;;
75340;SDS011;64931;47.562;18.920;2023-12-20T02:34:26;39.10;;;17.60;;
75340;SDS011;64931;47.562;18.920;2023-12-20T02:36:51;39.20;;;16.90;;
75340;SDS011;64931;47.562;18.920;2023-12-20T02:39:16;46.80;;;20.20;;
75340;SDS011;64931;47.562;18.920;2023-12-20T02:41:43;42.20;;;20.40;;
75340;SDS011;64931;47.562;18.920;2023-12-20T02:44:08;33.40;;;15.80;;
75340;SDS011;64931;47.562;18.920;2023-12-20T02:46:33;36.00;;;16.40;;
75340;SDS011;64931;47.562;18.920;2023-12-20T02:48:59;41.90;;;17.60;;
75340;SDS011;64931;47.562;18.920;2023-12-20T02:51:24;45.30;;;17.80;;
75340;SDS011;64931;47.562;18.920;2023-12-20T02:53:49;38.20;;;17.80;;
75340;SDS011;64931;47.562;18.920;2023-12-20T02:56:15;39.50;;;17.10;;
75340;SDS011;64931;47.562;18.920;2023-12-20T02:58:40;40.20;;;18.80;;
75340;SDS011;64931;47.562;18.920;2023-12-20T03:01:05;35.60;;;16.70;;
75340;SDS011;64931;47.562;18.920;2023-12-20T03:03:31;39.20;;;17.20;;
75340;SDS011;64931;47.562;18.920;2023-12-20T03:05:58;42.40;;;18.80;;
75340;SDS011;64931;47.562;18.920;2023-12-20T03:08:23;38.50;;;18.10;;
75340;SDS011;64931;47.562;18.920;2023-12-20T03:10:48;46.10;;;18.40;;
75340;SDS011;64931;47.562;18.920;2023-12-20T03:13:14;40.20;;;18.80;;
75340;SDS011;64931;47.562;18.920;2023-12-20T03:15:39;39.00;;;17.60;;
75340;SDS011;64931;47.562;18.920;2023-12-20T03:18:05;40.60;;;18.80;;
75340;SDS011;64931;47.562;18.920;2023-12-20T03:20:30;41.40;;;18.60;;
75340;SDS011;64931;47.562;18.920;2023-12-20T03:22:59;40.50;;;18.60;;
75340;SDS011;64931;47.562;18.920;2023-12-20T03:25:25;38.60;;;18.40;;
75340;SDS011;64931;47.562;18.920;2023-12-20T03:27:50;36.90;;;17.40;;
75340;SDS011;64931;47.562;18.920;2023-12-20T03:30:15;33.30;;;16.10;;
75340;SDS011;64931;47.562;18.920;2023-12-20T03:32:41;39.10;;;18.20;;
75340;SDS011;64931;47.562;18.920;2023-12-20T03:35:06;37.10;;;16.30;;
75340;SDS011;64931;47.562;18.920;2023-12-20T03:37:31;40.70;;;17.90;;
75340;SDS011;64931;47.562;18.920;2023-12-20T03:39:57;39.00;;;19.20;;
75340;SDS011;64931;47.562;18.920;2023-12-20T03:42:22;40.10;;;19.10;;
75340;SDS011;64931;47.562;18.920;2023-12-20T03:44:47;41.40;;;18.70;;
75340;SDS011;64931;47.562;18.920;2023-12-20T03:47:12;44.10;;;18.10;;
75340;SDS011;64931;47.562;18.920;2023-12-20T03:49:38;32.40;;;16.10;;
75340;SDS011;64931;47.562;18.920;2023-12-20T03:52:04;38.50;;;17.10;;
75340;SDS011;64931;47.562;18.920;2023-12-20T03:54:30;40.50;;;18.80;;
75340;SDS011;64931;47.562;18.920;2023-12-20T03:56:55;38.90;;;16.50;;
75340;SDS011;64931;47.562;18.920;2023-12-20T03:59:20;36.00;;;16.70;;
75340;SDS011;64931;47.562;18.920;2023-12-20T04:01:45;38.70;;;18.00;;
75340;SDS011;64931;47.562;18.920;2023-12-20T04:04:11;35.90;;;16.30;;
75340;SDS011;64931;47.562;18.920;2023-12-20T04:06:37;44.10;;;19.50;;
75340;SDS011;64931;47.562;18.920;2023-12-20T04:09:03;36.40;;;17.50;;
75340;SDS011;64931;47.562;18.920;2023-12-20T04:11:28;39.90;;;17.00;;
75340;SDS011;64931;47.562;18.920;2023-12-20T04:13:53;45.00;;;19.80;;
75340;SDS011;64931;47.562;18.920;2023-12-20T04:16:19;36.50;;;18.20;;
75340;SDS011;64931;47.562;18.920;2023-12-20T04:18:44;39.40;;;17.60;;
75340;SDS011;64931;47.562;18.920;2023-12-20T04:21:09;37.10;;;17.60;;
75340;SDS011;64931;47.562;18.920;2023-12-20T04:23:34;38.80;;;18.00;;
75340;SDS011;64931;47.562;18.920;2023-12-20T04:26:00;35.70;;;17.00;;
75340;SDS011;64931;47.562;18.920;2023-12-20T04:28:25;41.80;;;19.50;;
75340;SDS011;64931;47.562;18.920;2023-12-20T04:30:50;40.40;;;18.90;;
75340;SDS011;64931;47.562;18.920;2023-12-20T04:33:16;40.00;;;18.20;;
75340;SDS011;64931;47.562;18.920;2023-12-20T04:35:41;35.90;;;16.50;;
75340;SDS011;64931;47.562;18.920;2023-12-20T04:38:08;36.40;;;16.30;;
75340;SDS011;64931;47.562;18.920;2023-12-20T04:40:34;32.80;;;15.60;;
75340;SDS011;64931;47.562;18.920;2023-12-20T04:42:59;36.30;;;17.10;;
75340;SDS011;64931;47.562;18.920;2023-12-20T04:45:25;40.20;;;17.60;;
75340;SDS011;64931;47.562;18.920;2023-12-20T04:47:51;35.10;;;16.40;;
75340;SDS011;64931;47.562;18.920;2023-12-20T04:50:16;36.10;;;17.60;;
75340;SDS011;64931;47.562;18.920;2023-12-20T04:52:42;34.00;;;16.90;;
75340;SDS011;64931;47.562;18.920;2023-12-20T04:55:07;38.10;;;17.00;;
75340;SDS011;64931;47.562;18.920;2023-12-20T04:57:34;39.10;;;18.10;;
75340;SDS011;64931;47.562;18.920;2023-12-20T04:59:59;37.80;;;16.90;;
75340;SDS011;64931;47.562;18.920;2023-12-20T05:02:25;38.80;;;18.80;;
75340;SDS011;64931;47.562;18.920;2023-12-20T05:04:50;37.90;;;17.70;;
75340;SDS011;64931;47.562;18.920;2023-12-20T05:07:16;39.00;;;19.10;;
75340;SDS011;64931;47.562;18.920;2023-12-20T05:09:41;42.60;;;18.10;;
75340;SDS011;64931;47.562;18.920;2023-12-20T05:12:06;41.00;;;18.70;;
75340;SDS011;64931;47.562;18.920;2023-12-20T05:14:32;39.80;;;18.50;;
75340;SDS011;64931;47.562;18.920;2023-12-20T05:16:57;41.40;;;21.30;;
75340;SDS011;64931;47.562;18.920;2023-12-20T05:19:23;37.30;;;19.50;;
75340;SDS011;64931;47.562;18.920;2023-12-20T05:21:49;42.20;;;21.20;;
75340;SDS011;64931;47.562;18.920;2023-12-20T05:24:15;40.90;;;20.30;;
75340;SDS011;64931;47.562;18.920;2023-12-20T05:26:40;45.10;;;21.30;;
75340;SDS011;64931;47.562;18.920;2023-12-20T05:29:05;41.70;;;19.30;;
75340;SDS011;64931;47.562;18.920;2023-12-20T05:31:31;41.10;;;20.00;;
75340;SDS011;64931;47.562;18.920;2023-12-20T05:33:57;37.60;;;18.50;;
75340;SDS011;64931;47.562;18.920;2023-12-20T05:36:22;38.00;;;19.10;;
75340;SDS011;64931;47.562;18.920;2023-12-20T05:38:47;38.30;;;17.90;;
75340;SDS011;64931;47.562;18.920;2023-12-20T05:41:13;36.80;;;17.70;;
75340;SDS011;64931;47.562;18.920;2023-12-20T05:43:38;43.80;;;22.50;;
75340;SDS011;64931;47.562;18.920;2023-12-20T05:46:04;41.00;;;19.40;;
75340;SDS011;64931;47.562;18.920;2023-12-20T05:48:29;41.40;;;20.30;;
75340;SDS011;64931;47.562;18.920;2023-12-20T05:50:54;39.90;;;20.10;;
75340;SDS011;64931;47.562;18.920;2023-12-20T05:53:20;40.60;;;20.80;;
75340;SDS011;64931;47.562;18.920;2023-12-20T05:55:45;41.30;;;18.90;;
75340;SDS011;64931;47.562;18.920;2023-12-20T05:58:11;39.70;;;19.40;;
75340;SDS011;64931;47.562;18.920;2023-12-20T06:00:36;36.40;;;18.60;;
75340;SDS011;64931;47.562;18.920;2023-12-20T06:03:01;36.70;;;17.80;;
75340;SDS011;64931;47.562;18.920;2023-12-20T06:05:27;34.50;;;18.60;;
75340;SDS011;64931;47.562;18.920;2023-12-20T06:07:52;35.50;;;19.00;;
75340;SDS011;64931;47.562;18.920;2023-12-20T06:10:17;36.50;;;18.00;;
75340;SDS011;64931;47.562;18.920;2023-12-20T06:12:42;34.30;;;17.70;;
75340;SDS011;64931;47.562;18.920;2023-12-20T06:15:08;44.30;;;20.60;;
75340;SDS011;64931;47.562;18.920;2023-12-20T06:17:34;48.40;;;22.70;;
75340;SDS011;64931;47.562;18.920;2023-12-20T06:20:00;41.40;;;22.00;;
75340;SDS011;64931;47.562;18.920;2023-12-20T06:22:26;50.50;;;24.60;;
75340;SDS011;64931;47.562;18.920;2023-12-20T06:24:51;49.70;;;25.00;;
75340;SDS011;64931;47.562;18.920;2023-12-20T06:27:16;50.20;;;26.60;;
75340;SDS011;64931;47.562;18.920;2023-12-20T06:29:42;41.50;;;21.90;;
75340;SDS011;64931;47.562;18.920;2023-12-20T06:32:09;41.60;;;22.40;;
75340;SDS011;64931;47.562;18.920;2023-12-20T06:34:35;42.70;;;21.80;;
75340;SDS011;64931;47.562;18.920;2023-12-20T06:37:00;34.80;;;17.40;;
75340;SDS011;64931;47.562;18.920;2023-12-20T06:39:25;34.40;;;18.30;;
75340;SDS011;64931;47.562;18.920;2023-12-20T06:41:51;34.10;;;16.00;;
75340;SDS011;64931;47.562;18.920;2023-12-20T06:44:16;35.40;;;17.90;;
75340;SDS011;64931;47.562;18.920;2023-12-20T06:46:41;49.70;;;24.70;;
75340;SDS011;64931;47.562;18.920;2023-12-20T06:49:08;34.50;;;18.40;;
75340;SDS011;64931;47.562;18.920;2023-12-20T06:51:33;51.40;;;24.90;;
75340;SDS011;64931;47.562;18.920;2023-12-20T06:53:58;44.30;;;22.90;;
75340;SDS011;64931;47.562;18.920;2023-12-20T06:56:25;41.80;;;21.70;;
75340;SDS011;64931;47.562;18.920;2023-12-20T06:58:50;42.30;;;21.70;;
75340;SDS011;64931;47.562;18.920;2023-12-20T07:01:15;50.70;;;24.60;;
75340;SDS011;64931;47.562;18.920;2023-12-20T07:03:41;62.40;;;29.20;;
75340;SDS011;64931;47.562;18.920;2023-12-20T07:06:07;50.90;;;26.10;;
75340;SDS011;64931;47.562;18.920;2023-12-20T07:08:32;50.10;;;26.60;;
75340;SDS011;64931;47.562;18.920;2023-12-20T07:10:58;49.20;;;24.00;;
75340;SDS011;64931;47.562;18.920;2023-12-20T07:13:23;50.60;;;26.10;;
75340;SDS011;64931;47.562;18.920;2023-12-20T07:15:49;53.00;;;27.10;;
75340;SDS011;64931;47.562;18.920;2023-12-20T07:18:14;50.50;;;25.20;;
75340;SDS011;64931;47.562;18.920;2023-12-20T07:20:39;47.40;;;23.80;;
75340;SDS011;64931;47.562;18.920;2023-12-20T07:23:04;54.20;;;27.00;;
75340;SDS011;64931;47.562;18.920;2023-12-20T07:25:30;49.20;;;26.30;;
75340;SDS011;64931;47.562;18.920;2023-12-20T07:27:57;44.40;;;23.60;;
75340;SDS011;64931;47.562;18.920;2023-12-20T07:30:23;49.70;;;27.50;;
75340;SDS011;64931;47.562;18.920;2023-12-20T07:32:48;54.90;;;26.60;;
75340;SDS011;64931;47.562;18.920;2023-12-20T07:35:15;51.30;;;27.60;;
75340;SDS011;64931;47.562;18.920;2023-12-20T07:37:40;51.90;;;27.40;;
75340;SDS011;64931;47.562;18.920;2023-12-20T07:40:06;46.70;;;24.20;;
75340;SDS011;64931;47.562;18.920;2023-12-20T07:42:34;46.40;;;25.20;;
75340;SDS011;64931;47.562;18.920;2023-12-20T07:44:59;46.70;;;23.10;;
75340;SDS011;64931;47.562;18.920;2023-12-20T07:47:24;47.90;;;25.10;;
75340;SDS011;64931;47.562;18.920;2023-12-20T07:49:50;43.10;;;21.40;;
75340;SDS011;64931;47.562;18.920;2023-12-20T07:52:20;48.90;;;23.60;;
75340;SDS011;64931;47.562;18.920;2023-12-20T07:54:47;53.30;;;24.50;;
75340;SDS011;64931;47.562;18.920;2023-12-20T07:57:13;57.40;;;27.20;;
75340;SDS011;64931;47.562;18.920;2023-12-20T07:59:38;66.40;;;32.30;;
75340;SDS011;64931;47.562;18.920;2023-12-20T08:02:04;66.50;;;32.40;;
75340;SDS011;64931;47.562;18.920;2023-12-20T08:04:29;64.80;;;32.30;;
75340;SDS011;64931;47.562;18.920;2023-12-20T08:06:54;65.00;;;31.10;;
75340;SDS011;64931;47.562;18.920;2023-12-20T08:09:20;63.10;;;30.70;;
75340;SDS011;64931;47.562;18.920;2023-12-20T08:11:46;46.30;;;23.50;;
75340;SDS011;64931;47.562;18.920;2023-12-20T08:14:12;60.30;;;31.10;;
75340;SDS011;64931;47.562;18.920;2023-12-20T08:16:37;46.10;;;25.20;;
75340;SDS011;64931;47.562;18.920;2023-12-20T08:19:02;52.00;;;27.40;;
75340;SDS011;64931;47.562;18.920;2023-12-20T08:21:27;30.30;;;16.60;;
75340;SDS011;64931;47.562;18.920;2023-12-20T08:23:53;22.30;;;12.40;;
75340;SDS011;64931;47.562;18.920;2023-12-20T08:26:18;22.20;;;13.80;;
75340;SDS011;64931;47.562;18.920;2023-12-20T08:28:49;23.80;;;15.10;;
75340;SDS011;64931;47.562;18.920;2023-12-20T08:31:17;20.70;;;13.80;;
75340;SDS011;64931;47.562;18.920;2023-12-20T08:33:46;20.90;;;12.10;;
75340;SDS011;64931;47.562;18.920;2023-12-20T08:36:13;19.50;;;11.70;;
75340;SDS011;64931;47.562;18.920;2023-12-20T08:38:38;30.70;;;17.50;;
75340;SDS011;64931;47.562;18.920;2023-12-20T08:41:04;47.20;;;28.00;;
75340;SDS011;64931;47.562;18.920;2023-12-20T08:45:59;42.20;;;24.80;;
75340;SDS011;64931;47.562;18.920;2023-12-20T08:48:24;50.00;;;30.10;;
75340;SDS011;64931;47.562;18.920;2023-12-20T08:50:49;21.40;;;12.30;;
75340;SDS011;64931;47.562;18.920;2023-12-20T08:53:16;17.10;;;10.80;;
75340;SDS011;64931;47.562;18.920;2023-12-20T08:55:42;15.90;;;9.70;;
75340;SDS011;64931;47.562;18.920;2023-12-20T08:58:07;15.40;;;9.70;;
75340;SDS011;64931;47.562;18.920;2023-12-20T09:00:33;15.90;;;11.00;;
75340;SDS011;64931;47.562;18.920;2023-12-20T09:02:59;15.70;;;10.00;;
75340;SDS011;64931;47.562;18.920;2023-12-20T09:05:25;15.50;;;9.20;;
75340;SDS011;64931;47.562;18.920;2023-12-20T09:07:50;14.60;;;9.20;;
75340;SDS011;64931;47.562;18.920;2023-12-20T09:10:15;15.60;;;8.50;;
75340;SDS011;64931;47.562;18.920;2023-12-20T09:12:41;14.70;;;8.80;;
75340;SDS011;64931;47.562;18.920;2023-12-20T09:15:07;15.20;;;9.20;;
75340;SDS011;64931;47.562;18.920;2023-12-20T09:17:33;13.90;;;8.40;;
75340;SDS011;64931;47.562;18.920;2023-12-20T09:19:59;11.10;;;7.10;;
75340;SDS011;64931;47.562;18.920;2023-12-20T09:22:25;10.70;;;7.10;;
75340;SDS011;64931;47.562;18.920;2023-12-20T09:24:50;11.20;;;7.00;;
75340;SDS011;64931;47.562;18.920;2023-12-20T09:27:16;10.90;;;6.00;;
75340;SDS011;64931;47.562;18.920;2023-12-20T09:29:41;10.70;;;7.50;;
75340;SDS011;64931;47.562;18.920;2023-12-20T09:32:06;10.70;;;6.40;;
75340;SDS011;64931;47.562;18.920;2023-12-20T09:34:33;10.20;;;6.80;;
75340;SDS011;64931;47.562;18.920;2023-12-20T09:36:58;10.10;;;6.50;;
75340;SDS011;64931;47.562;18.920;2023-12-20T09:39:23;9.50;;;5.90;;
75340;SDS011;64931;47.562;18.920;2023-12-20T09:41:57;10.90;;;6.30;;
75340;SDS011;64931;47.562;18.920;2023-12-20T09:44:26;9.30;;;6.40;;
75340;SDS011;64931;47.562;18.920;2023-12-20T09:46:51;8.20;;;4.90;;
75340;SDS011;64931;47.562;18.920;2023-12-20T09:49:18;10.30;;;6.50;;
75340;SDS011;64931;47.562;18.920;2023-12-20T09:51:45;10.80;;;6.50;;
75340;SDS011;64931;47.562;18.920;2023-12-20T09:54:12;9.50;;;6.90;;
75340;SDS011;64931;47.562;18.920;2023-12-20T09:56:39;9.60;;;7.00;;
75340;SDS011;64931;47.562;18.920;2023-12-20T09:59:04;10.20;;;7.30;;
75340;SDS011;64931;47.562;18.920;2023-12-20T10:01:30;10.50;;;7.30;;
75340;SDS011;64931;47.562;18.920;2023-12-20T10:03:56;10.60;;;6.50;;
75340;SDS011;64931;47.562;18.920;2023-12-20T10:06:23;11.00;;;7.20;;
75340;SDS011;64931;47.562;18.920;2023-12-20T10:08:49;9.50;;;6.30;;
75340;SDS011;64931;47.562;18.920;2023-12-20T10:11:14;9.70;;;6.70;;
75340;SDS011;64931;47.562;18.920;2023-12-20T10:13:40;6.80;;;4.00;;
75340;SDS011;64931;47.562;18.920;2023-12-20T10:16:09;10.40;;;5.40;;
75340;SDS011;64931;47.562;18.920;2023-12-20T10:18:34;9.30;;;6.20;;
75340;SDS011;64931;47.562;18.920;2023-12-20T10:21:02;9.50;;;5.70;;
75340;SDS011;64931;47.562;18.920;2023-12-20T10:23:28;9.50;;;5.90;;
75340;SDS011;64931;47.562;18.920;2023-12-20T10:25:56;8.90;;;6.00;;
75340;SDS011;64931;47.562;18.920;2023-12-20T10:28:23;10.30;;;5.80;;
75340;SDS011;64931;47.562;18.920;2023-12-20T10:30:52;8.50;;;6.20;;
75340;SDS011;64931;47.562;18.920;2023-12-20T10:33:25;9.90;;;5.60;;
75340;SDS011;64931;47.562;18.920;2023-12-20T10:35:51;8.30;;;6.20;;
75340;SDS011;64931;47.562;18.920;2023-12-20T10:38:17;7.70;;;4.90;;
75340;SDS011;64931;47.562;18.920;2023-12-20T10:40:43;8.10;;;4.90;;
75340;SDS011;64931;47.562;18.920;2023-12-20T10:43:10;8.00;;;5.10;;
75340;SDS011;64931;47.562;18.920;2023-12-20T10:45:36;8.20;;;4.90;;
75340;SDS011;64931;47.562;18.920;2023-12-20T10:48:01;9.50;;;6.10;;
75340;SDS011;64931;47.562;18.920;2023-12-20T10:50:27;8.50;;;5.90;;
75340;SDS011;64931;47.562;18.920;2023-12-20T10:52:54;8.60;;;6.50;;
75340;SDS011;64931;47.562;18.920;2023-12-20T10:55:23;9.80;;;6.60;;
75340;SDS011;64931;47.562;18.920;2023-12-20T10:57:52;9.80;;;6.20;;
75340;SDS011;64931;47.562;18.920;2023-12-20T11:00:20;9.60;;;6.70;;
75340;SDS011;64931;47.562;18.920;2023-12-20T11:02:46;9.30;;;6.60;;
75340;SDS011;64931;47.562;18.920;2023-12-20T11:07:55;9.20;;;6.50;;
75340;SDS011;64931;47.562;18.920;2023-12-20T11:10:25;10.40;;;6.90;;
75340;SDS011;64931;47.562;18.920;2023-12-20T11:13:12;11.00;;;7.20;;
75340;SDS011;64931;47.562;18.920;2023-12-20T11:15:42;9.40;;;6.40;;
75340;SDS011;64931;47.562;18.920;2023-12-20T11:18:08;9.60;;;7.00;;
75340;SDS011;64931;47.562;18.920;2023-12-20T11:20:37;10.90;;;7.10;;
75340;SDS011;64931;47.562;18.920;2023-12-20T11:23:05;9.40;;;6.80;;
75340;SDS011;64931;47.562;18.920;2023-12-20T11:25:38;9.80;;;7.00;;
75340;SDS011;64931;47.562;18.920;2023-12-20T11:28:11;9.80;;;6.20;;
75340;SDS011;64931;47.562;18.920;2023-12-20T11:30:41;11.50;;;6.80;;
75340;SDS011;64931;47.562;18.920;2023-12-20T11:33:29;10.70;;;6.80;;
75340;SDS011;64931;47.562;18.920;2023-12-20T11:35:56;9.70;;;6.90;;
75340;SDS011;64931;47.562;18.920;2023-12-20T11:38:22;9.90;;;6.70;;
75340;SDS011;64931;47.562;18.920;2023-12-20T11:40:48;9.70;;;6.60;;
75340;SDS011;64931;47.562;18.920;2023-12-20T11:43:29;11.40;;;7.30;;
75340;SDS011;64931;47.562;18.920;2023-12-20T11:46:03;10.00;;;7.40;;
75340;SDS011;64931;47.562;18.920;2023-12-20T11:48:30;9.70;;;7.40;;
75340;SDS011;64931;47.562;18.920;2023-12-20T11:50:56;9.90;;;7.40;;
75340;SDS011;64931;47.562;18.920;2023-12-20T11:53:22;10.80;;;7.00;;
75340;SDS011;64931;47.562;18.920;2023-12-20T11:55:48;10.20;;;6.90;;
75340;SDS011;64931;47.562;18.920;2023-12-20T11:58:16;9.00;;;6.70;;
75340;SDS011;64931;47.562;18.920;2023-12-20T12:00:42;10.20;;;7.40;;
75340;SDS011;64931;47.562;18.920;2023-12-20T12:03:08;10.30;;;7.10;;
75340;SDS011;64931;47.562;18.920;2023-12-20T12:05:34;9.80;;;6.00;;
75340;SDS011;64931;47.562;18.920;2023-12-20T12:07:59;10.60;;;6.80;;
75340;SDS011;64931;47.562;18.920;2023-12-20T12:10:24;10.70;;;7.10;;
75340;SDS011;64931;47.562;18.920;2023-12-20T12:12:50;10.20;;;6.80;;
75340;SDS011;64931;47.562;18.920;2023-12-20T12:15:15;11.30;;;6.90;;
75340;SDS011;64931;47.562;18.920;2023-12-20T12:17:41;12.00;;;7.50;;
75340;SDS011;64931;47.562;18.920;2023-12-20T12:20:06;10.60;;;8.10;;
75340;SDS011;64931;47.562;18.920;2023-12-20T12:22:33;11.40;;;7.90;;
75340;SDS011;64931;47.562;18.920;2023-12-20T12:24:59;12.60;;;8.20;;
75340;SDS011;64931;47.562;18.920;2023-12-20T12:27:33;11.20;;;7.50;;
75340;SDS011;64931;47.562;18.920;2023-12-20T12:30:00;13.30;;;8.60;;
75340;SDS011;64931;47.562;18.920;2023-12-20T12:32:29;12.40;;;8.10;;
75340;SDS011;64931;47.562;18.920;2023-12-20T12:34:54;13.00;;;8.90;;
75340;SDS011;64931;47.562;18.920;2023-12-20T12:37:20;13.40;;;9.10;;
75340;SDS011;64931;47.562;18.920;2023-12-20T12:39:46;15.20;;;8.30;;
75340;SDS011;64931;47.562;18.920;2023-12-20T12:42:11;13.00;;;9.20;;
75340;SDS011;64931;47.562;18.920;2023-12-20T12:44:37;15.20;;;8.50;;
75340;SDS011;64931;47.562;18.920;2023-12-20T12:47:02;13.30;;;10.60;;
75340;SDS011;64931;47.562;18.920;2023-12-20T12:49:28;14.20;;;9.10;;
75340;SDS011;64931;47.562;18.920;2023-12-20T12:51:54;14.60;;;10.50;;
75340;SDS011;64931;47.562;18.920;2023-12-20T12:54:23;14.90;;;11.20;;
75340;SDS011;64931;47.562;18.920;2023-12-20T12:56:48;14.00;;;8.90;;
75340;SDS011;64931;47.562;18.920;2023-12-20T12:59:15;14.70;;;10.40;;
75340;SDS011;64931;47.562;18.920;2023-12-20T13:01:41;13.20;;;9.90;;
75340;SDS011;64931;47.562;18.920;2023-12-20T13:04:06;14.50;;;11.00;;
75340;SDS011;64931;47.562;18.920;2023-12-20T13:06:35;15.90;;;10.20;;
75340;SDS011;64931;47.562;18.920;2023-12-20T13:09:02;16.90;;;12.10;;
75340;SDS011;64931;47.562;18.920;2023-12-20T13:11:29;17.90;;;11.60;;
75340;SDS011;64931;47.562;18.920;2023-12-20T13:13:56;16.30;;;10.30;;
75340;SDS011;64931;47.562;18.920;2023-12-20T13:16:22;18.80;;;12.40;;
75340;SDS011;64931;47.562;18.920;2023-12-20T13:18:49;18.50;;;12.40;;
75340;SDS011;64931;47.562;18.920;2023-12-20T13:21:15;20.50;;;13.30;;
75340;SDS011;64931;47.562;18.920;2023-12-20T13:23:40;21.10;;;10.90;;
75340;SDS011;64931;47.562;18.920;2023-12-20T13:26:05;20.50;;;12.60;;
75340;SDS011;64931;47.562;18.920;2023-12-20T13:28:32;20.50;;;14.70;;
75340;SDS011;64931;47.562;18.920;2023-12-20T13:30:57;20.20;;;12.20;;
75340;SDS011;64931;47.562;18.920;2023-12-20T13:33:23;22.10;;;11.90;;
75340;SDS011;64931;47.562;18.920;2023-12-20T13:35:48;19.90;;;13.70;;
75340;SDS011;64931;47.562;18.920;2023-12-20T13:38:13;22.40;;;16.20;;
75340;SDS011;64931;47.562;18.920;2023-12-20T13:40:39;20.20;;;14.40;;
75340;SDS011;64931;47.562;18.920;2023-12-20T13:43:05;21.40;;;12.10;;
75340;SDS011;64931;47.562;18.920;2023-12-20T13:45:31;19.10;;;11.40;;
75340;SDS011;64931;47.562;18.920;2023-12-20T13:47:56;20.60;;;13.70;;
75340;SDS011;64931;47.562;18.920;2023-12-20T13:50:22;16.80;;;9.80;;
75340;SDS011;64931;47.562;18.920;2023-12-20T13:52:47;17.50;;;11.80;;
75340;SDS011;64931;47.562;18.920;2023-12-20T13:55:13;17.00;;;10.20;;
75340;SDS011;64931;47.562;18.920;2023-12-20T13:57:38;20.40;;;12.60;;
75340;SDS011;64931;47.562;18.920;2023-12-20T14:00:05;21.50;;;13.90;;
75340;SDS011;64931;47.562;18.920;2023-12-20T14:02:30;22.00;;;13.80;;
75340;SDS011;64931;47.562;18.920;2023-12-20T14:04:56;16.40;;;9.30;;
75340;SDS011;64931;47.562;18.920;2023-12-20T14:07:21;21.20;;;14.40;;
75340;SDS011;64931;47.562;18.920;2023-12-20T14:09:46;19.80;;;14.10;;
75340;SDS011;64931;47.562;18.920;2023-12-20T14:12:12;20.90;;;13.30;;